| Temperature (°F) | Max | Average | Min |
|---|---|---|---|
| Max Temperature | 79 | 58.43 | 33 |
| Avg Temperature | 66.31 | 45.33 | 26.5 |
| Min Temperature | 57 | 34.18 | 13 |
| Dew Point (°F) | Max | Average | Min |
|---|---|---|---|
| Dew Point | 61 | 32.44 | 3 |
| Precipitation (in) | Max | Average | Min | Sum |
|---|---|---|---|---|
| Precipitation | 3.02 | 0.16 | 0.00 | 4.44 |
| Snowdepth | 0.00 | 0.00 | 0.00 | 0.00 |
| Wind (mph) | Max | Average | Min |
|---|---|---|---|
| Wind | 29 | 6.08 | 0 |
| Gust Wind | 40 | 4.85 | 0 |
| Sea Level Pressure (in) | Max | Average | Min |
|---|---|---|---|
| Sea Level Pressure | 29.48 | 29.01 | 28.28 |
| Date | Temperature (°F) | Dew Point (°F) | Humidity (%) | Wind Speed (mph) | Pressure (in) | Precipitation (in) | ||||||||||
|---|---|---|---|---|---|---|---|---|---|---|---|---|---|---|---|---|
| Max | Avg | Min | Max | Avg | Min | Max | Avg | Min | Max | Avg | Min | Max | Avg | Min | ||
| 2/28/2023 | 79 | 55.0 | 36 | 44 | 40.6 | 38 | 82 | 59.2 | 43 | 14 | 8.1 | 3 | 28.9 | 28.8 | 28.5 | 0.12 |
| 2/27/2023 | 66 | 50.1 | 43 | 57 | 42.7 | 33 | 100 | 79.1 | 42 | 17 | 7.1 | 0 | 28.9 | 28.6 | 28.3 | 0.00 |
| 2/26/2023 | 69 | 40.8 | 32 | 40 | 36.1 | 32 | 100 | 85.2 | 57 | 9 | 3.2 | 0 | 29.1 | 29.0 | 28.9 | 0.30 |
| 2/25/2023 | 52 | 37.3 | 31 | 39 | 33.8 | 25 | 100 | 87.6 | 76 | 7 | 3.5 | 0 | 29.3 | 29.1 | 29.1 | 0.00 |
| 2/24/2023 | 46 | 42.5 | 29 | 44 | 27.8 | 24 | 78 | 57.0 | 44 | 17 | 6.5 | 0 | 29.4 | 29.4 | 29.1 | 0.00 |
| 2/23/2023 | 65 | 66.3 | 33 | 61 | 53.3 | 46 | 93 | 66.3 | 36 | 15 | 9.7 | 3 | 29.0 | 28.9 | 28.7 | 0.14 |
| 2/22/2023 | 75 | 57.8 | 57 | 54 | 43.7 | 30 | 100 | 64.3 | 33 | 20 | 8.1 | 0 | 28.9 | 28.7 | 28.6 | 0.37 |
| 2/21/2023 | 78 | 52.0 | 38 | 49 | 36.5 | 18 | 100 | 62.7 | 27 | 21 | 7.0 | 0 | 28.9 | 28.7 | 28.6 | 0.10 |
| 2/20/2023 | 61 | 51.9 | 41 | 49 | 40.2 | 27 | 93 | 66.7 | 38 | 17 | 7.8 | 0 | 28.9 | 28.8 | 28.6 | 0.00 |
| 2/19/2023 | 56 | 46.9 | 46 | 31 | 25.8 | 18 | 89 | 52.1 | 18 | 16 | 6.2 | 0 | 29.2 | 29.0 | 28.9 | 0.00 |
| 2/18/2023 | 63 | 33.1 | 30 | 26 | 20.3 | 15 | 85 | 61.2 | 38 | 10 | 3.3 | 0 | 29.4 | 29.4 | 29.2 | 0.05 |
| 2/17/2023 | 45 | 39.3 | 23 | 56 | 34.6 | 16 | 100 | 83.4 | 61 | 21 | 9.7 | 0 | 29.3 | 29.0 | 28.7 | 3.02 |
| 2/16/2023 | 61 | 54.5 | 28 | 57 | 52.0 | 41 | 100 | 91.8 | 62 | 12 | 5.1 | 0 | 29.0 | 28.9 | 28.7 | 0.21 |
| 2/15/2023 | 60 | 63.5 | 47 | 45 | 39.0 | 27 | 61 | 41.8 | 26 | 18 | 11.0 | 0 | 29.0 | 28.9 | 28.9 | 0.01 |
| 2/14/2023 | 74 | 49.5 | 52 | 30 | 27.0 | 25 | 85 | 48.1 | 22 | 15 | 3.0 | 0 | 29.0 | 28.9 | 28.8 | 0.00 |
| 2/13/2023 | 65 | 43.2 | 28 | 28 | 22.7 | 13 | 92 | 53.4 | 17 | 16 | 5.5 | 0 | 28.9 | 28.8 | 28.8 | 0.00 |
| 2/12/2023 | 61 | 40.3 | 25 | 26 | 22.8 | 17 | 75 | 51.3 | 31 | 8 | 3.8 | 0 | 29.1 | 28.9 | 28.8 | 0.00 |
| 2/11/2023 | 49 | 36.3 | 32 | 31 | 23.8 | 17 | 96 | 63.8 | 35 | 7 | 2.2 | 0 | 29.3 | 29.3 | 29.1 | 0.00 |
| 2/10/2023 | 44 | 45.3 | 26 | 36 | 32.9 | 31 | 76 | 62.1 | 54 | 13 | 6.4 | 0 | 29.3 | 29.1 | 29.0 | 0.00 |
| 2/9/2023 | 50 | 62.2 | 39 | 48 | 45.3 | 38 | 96 | 57.3 | 35 | 29 | 11.5 | 0 | 29.0 | 28.9 | 28.7 | 0.00 |
| 2/8/2023 | 75 | 52.2 | 48 | 50 | 47.1 | 44 | 100 | 83.1 | 69 | 5 | 1.8 | 0 | 29.3 | 29.2 | 29.1 | 0.04 |
| 2/7/2023 | 56 | 47.3 | 48 | 35 | 30.2 | 26 | 96 | 57.8 | 32 | 14 | 4.5 | 0 | 29.1 | 29.1 | 29.1 | 0.00 |
| 2/6/2023 | 64 | 40.4 | 27 | 34 | 29.9 | 26 | 89 | 66.9 | 49 | 9 | 4.5 | 0 | 29.2 | 29.1 | 29.0 | 0.00 |
| 2/5/2023 | 50 | 47.0 | 29 | 34 | 26.5 | 21 | 73 | 46.9 | 30 | 20 | 8.1 | 0 | 29.2 | 29.1 | 28.9 | 0.00 |
| 2/4/2023 | 58 | 30.4 | 31 | 21 | 12.7 | 4 | 84 | 51.6 | 27 | 10 | 5.0 | 0 | 29.5 | 29.3 | 29.2 | 0.00 |
| 2/3/2023 | 46 | 26.5 | 13 | 26 | 12.0 | 3 | 79 | 55.5 | 34 | 21 | 10.6 | 0 | 29.5 | 29.3 | 29.0 | 0.00 |
| 2/2/2023 | 33 | 30.6 | 18 | 28 | 26.4 | 24 | 92 | 84.6 | 73 | 12 | 4.4 | 0 | 29.2 | 29.1 | 29.0 | 0.00 |
| 2/1/2023 | 35 | 27.1 | 27 | 28 | 22.8 | 19 | 96 | 83.9 | 72 | 8 | 2.7 | 0 | 29.3 | 29.3 | 29.2 | 0.08 |